createdAt,value
2023-03-23T15:58:11.921Z,16.90
2023-03-23T16:00:40.430Z,16.80
2023-03-23T16:03:14.485Z,16.80
2023-03-23T16:05:41.724Z,16.80
2023-03-23T16:08:11.818Z,16.70
2023-03-23T16:10:39.150Z,16.60
2023-03-23T16:13:07.073Z,16.60
2023-03-23T16:15:34.157Z,16.60
2023-03-23T16:18:01.074Z,16.60
2023-03-23T16:20:30.199Z,16.60
2023-03-23T16:22:57.486Z,16.60
2023-03-23T16:25:24.370Z,16.60
2023-03-23T16:27:52.687Z,16.60
2023-03-23T16:30:24.129Z,16.60
2023-03-23T16:32:51.498Z,16.60
2023-03-23T16:35:20.159Z,16.60
2023-03-23T16:38:07.112Z,16.60
2023-03-23T16:40:34.716Z,16.60
2023-03-23T16:43:01.622Z,16.60
2023-03-23T16:45:35.706Z,16.60
2023-03-23T16:48:02.630Z,16.60
2023-03-23T16:50:30.085Z,16.60
2023-03-23T16:52:57.446Z,16.60
2023-03-23T16:55:26.127Z,16.50
2023-03-23T16:58:05.396Z,16.50
2023-03-23T17:00:40.874Z,16.50
2023-03-23T17:03:08.437Z,16.40
2023-03-23T17:05:37.127Z,16.30
2023-03-23T17:08:04.620Z,16.30
2023-03-23T17:10:32.241Z,16.20
2023-03-23T17:12:59.206Z,16.10
2023-03-23T17:15:26.149Z,16.10
2023-03-23T17:17:54.795Z,16.00
2023-03-23T17:20:22.402Z,15.90
2023-03-23T17:22:49.488Z,15.90
2023-03-23T17:25:16.493Z,15.80
2023-03-23T17:27:43.409Z,15.70
2023-03-23T17:30:11.457Z,15.60
2023-03-23T17:32:39.091Z,15.50
2023-03-23T17:35:06.977Z,15.50
2023-03-23T17:37:34.448Z,15.40
2023-03-23T17:40:01.371Z,15.40
2023-03-23T17:42:29.550Z,15.30
2023-03-23T17:44:56.468Z,15.30
2023-03-23T17:47:24.095Z,15.20
2023-03-23T17:49:51.382Z,15.20
2023-03-23T17:52:18.293Z,15.20
2023-03-23T17:54:45.494Z,15.20
2023-03-23T17:57:12.469Z,15.20
2023-03-23T17:59:39.548Z,15.20
2023-03-23T18:02:06.670Z,15.20
2023-03-23T18:04:33.598Z,15.20
2023-03-23T18:07:00.970Z,15.20
2023-03-23T18:09:28.176Z,15.20
2023-03-23T18:11:56.558Z,15.20
2023-03-23T18:14:23.563Z,15.30
2023-03-23T18:16:50.609Z,15.30
2023-03-23T18:19:17.594Z,15.30
2023-03-23T18:21:46.000Z,15.30
2023-03-23T18:24:13.221Z,15.30
2023-03-23T18:26:40.931Z,15.20
2023-03-23T18:29:07.850Z,15.20
2023-03-23T18:31:39.926Z,15.20
2023-03-23T18:34:07.530Z,15.20
2023-03-23T18:36:35.065Z,15.10
2023-03-23T18:39:03.700Z,15.10
2023-03-23T18:41:30.681Z,15.00
2023-03-23T18:43:57.881Z,15.00
2023-03-23T18:46:25.487Z,14.90
2023-03-23T18:48:52.492Z,14.90
2023-03-23T18:51:19.380Z,14.80
2023-03-23T18:53:46.379Z,14.80
2023-03-23T18:56:16.439Z,14.70
2023-03-23T18:58:44.782Z,14.70
2023-03-23T19:01:16.951Z,14.60
2023-03-23T19:03:45.313Z,14.60
2023-03-23T19:06:22.537Z,14.50
2023-03-23T19:08:50.242Z,14.50
2023-03-23T19:11:18.153Z,14.50
2023-03-23T19:13:58.450Z,14.40
2023-03-23T19:16:31.068Z,14.30
2023-03-23T19:18:58.137Z,14.30
2023-03-23T19:21:25.905Z,14.20
2023-03-23T19:23:55.240Z,14.20
2023-03-23T19:26:34.708Z,14.20
2023-03-23T19:31:35.948Z,14.10
2023-03-23T19:34:02.890Z,14.10
2023-03-23T19:36:30.316Z,14.10
2023-03-23T19:38:57.802Z,14.00
2023-03-23T19:41:30.334Z,14.00
2023-03-23T19:43:57.607Z,14.00
2023-03-23T19:46:26.027Z,14.00
2023-03-23T19:48:54.631Z,13.90
2023-03-23T19:51:22.465Z,13.90
2023-03-23T19:53:50.193Z,13.90
2023-03-23T19:56:21.511Z,13.90
2023-03-23T19:58:49.042Z,13.80
2023-03-23T20:01:16.764Z,13.80
2023-03-23T20:03:44.060Z,13.80
2023-03-23T20:06:15.119Z,13.70
2023-03-23T20:08:45.549Z,13.70
2023-03-23T20:11:17.176Z,13.70
2023-03-23T20:13:45.936Z,13.70
2023-03-23T20:16:12.970Z,13.60
2023-03-23T20:18:40.613Z,13.60
2023-03-23T20:21:14.473Z,13.60
2023-03-23T20:23:42.941Z,13.50
2023-03-23T20:26:14.752Z,13.50
2023-03-23T20:28:42.682Z,13.50
2023-03-23T20:31:19.282Z,13.40
2023-03-23T20:34:00.249Z,13.40
2023-03-23T20:36:34.783Z,13.40
2023-03-23T20:39:12.507Z,13.40
2023-03-23T20:41:40.373Z,13.40
2023-03-23T20:44:13.739Z,13.30
2023-03-23T20:46:45.778Z,13.30
2023-03-23T20:49:13.912Z,13.30
2023-03-23T20:51:40.987Z,13.30
2023-03-23T20:54:08.001Z,13.30
2023-03-23T20:56:35.614Z,13.30
2023-03-23T20:59:03.701Z,13.30
2023-03-23T21:01:33.155Z,13.20
2023-03-23T21:04:00.284Z,13.20
2023-03-23T21:06:28.768Z,13.20
2023-03-23T21:08:57.428Z,13.20
2023-03-23T21:11:26.641Z,13.20
2023-03-23T21:13:54.278Z,13.20
2023-03-23T21:16:21.535Z,13.20
2023-03-23T21:18:48.633Z,13.20
2023-03-23T21:21:18.381Z,13.20
2023-03-23T21:23:47.505Z,13.20
2023-03-23T21:26:17.001Z,13.20
2023-03-23T21:28:45.796Z,13.20
2023-03-23T21:31:14.980Z,13.10
2023-03-23T21:33:42.026Z,13.10
2023-03-23T21:36:10.096Z,13.20
2023-03-23T21:38:38.356Z,13.10
2023-03-23T21:41:14.282Z,13.10
2023-03-23T21:43:41.730Z,13.10
2023-03-23T21:46:09.840Z,13.10
2023-03-23T21:48:41.533Z,13.00
2023-03-23T21:51:13.416Z,13.00
2023-03-23T21:53:42.025Z,13.00
2023-03-23T21:56:10.728Z,13.00
2023-03-23T21:58:38.387Z,13.00
2023-03-23T22:01:05.629Z,12.90
2023-03-23T22:03:35.283Z,12.90
2023-03-23T22:06:16.310Z,12.90
2023-03-23T22:08:45.312Z,12.90
2023-03-23T22:11:17.119Z,12.90
2023-03-23T22:13:44.238Z,12.90
2023-03-23T22:16:14.892Z,12.90
2023-03-23T22:18:43.321Z,12.90
2023-03-23T22:21:11.341Z,12.90
2023-03-23T22:23:39.402Z,12.90
2023-03-23T22:26:07.540Z,12.80
2023-03-23T22:28:37.072Z,12.90
2023-03-23T22:31:14.274Z,12.90
2023-03-23T22:33:41.169Z,12.90
2023-03-23T22:36:08.846Z,12.90
2023-03-23T22:38:38.449Z,12.90
2023-03-23T22:41:08.200Z,12.90
2023-03-23T22:43:36.637Z,12.90
2023-03-23T22:46:04.861Z,12.90
2023-03-23T22:48:31.982Z,12.90
2023-03-23T22:50:59.532Z,12.90
2023-03-23T22:53:26.452Z,13.00
2023-03-23T22:55:56.642Z,13.00
2023-03-23T22:58:25.913Z,13.00
2023-03-23T23:01:02.821Z,13.00
2023-03-23T23:03:30.799Z,13.10
2023-03-23T23:05:59.462Z,13.10
2023-03-23T23:08:28.518Z,13.10
2023-03-23T23:10:57.701Z,13.10
2023-03-23T23:13:25.913Z,13.20
2023-03-23T23:15:56.966Z,13.20
2023-03-23T23:18:25.927Z,13.20
2023-03-23T23:20:56.355Z,13.30
2023-03-23T23:23:25.172Z,13.30
2023-03-23T23:25:52.170Z,13.30
2023-03-23T23:28:20.236Z,13.30
2023-03-23T23:30:47.753Z,13.30
2023-03-23T23:33:14.991Z,13.40
2023-03-23T23:35:42.491Z,13.30
2023-03-23T23:38:12.341Z,13.30
2023-03-23T23:40:41.380Z,13.30
2023-03-23T23:43:10.713Z,13.30
2023-03-23T23:45:37.960Z,13.30
2023-03-23T23:48:05.381Z,13.30
2023-03-23T23:50:32.800Z,13.30
2023-03-23T23:53:00.140Z,13.30
2023-03-23T23:55:27.925Z,13.30
2023-03-23T23:57:54.847Z,13.30
